Home   Weather   Brunswick Villa   Past weeks
Flag for USA

Past Weather in Brunswick Villa, Georgia, USA — Yesterday and Last 2 Weeks

Currently: 85 °F. Sunny. (Weather station: Waycross / Ware County - Ga, USA). See more current weather

Past Weather in Brunswick Villa — Graph

°F

Brunswick Villa Temperature Yesterday

Maximum temperature yesterday: 73 °F (at 3:15 pm)
Minimum temperature yesterday: 63 °F (at 10:35 pm)
Average temperature yesterday: 67 °F

High & Low Weather Summary for the Past Weeks

 TemperatureHumidityPressure
High94 °F (Sep 22, 3:55 pm)97% (Sep 17, 2:55 am)30.15 "Hg (Sep 17, 2:55 am)
Low57 °F (Oct 1, 5:55 am)28% (Sep 27, 3:55 pm)29.78 "Hg (Sep 30, 4:35 am)
Average74 °F72%29.96 "Hg
* Reported Sep 16 3:15 pm — Oct 1 3:15 pm, Brunswick Villa. Weather by CustomWeather, © 2022

Note: Actual official high and low records may vary slightly from our data, if they occured in-between our weather recording intervals... More about our weather records

Brunswick Villa Weather History for the Previous 24 Hours

Scroll right to see more
 ConditionsComfort  
Time TempWeatherWind HumidityBarometerVisibility
3:15 pm
Sat, Oct 1
84 °FSunny.16 mph30%29.81 "Hg10 mi
2:55 pm84 °FSunny.12 mph30%29.81 "Hg10 mi
2:35 pm84 °FSunny.16 mph30%29.82 "Hg10 mi
1:55 pm83 °FSunny.17 mph32%29.84 "Hg10 mi
1:15 pm81 °FSunny.15 mph38%29.85 "Hg10 mi
12:55 pm81 °FSunny.14 mph39%29.86 "Hg10 mi
12:15 pm79 °FScattered clouds.12 mph50%29.87 "Hg10 mi
11:35 am77 °FSunny.15 mph51%29.88 "Hg10 mi
11:15 am76 °FSunny.12 mph55%29.88 "Hg10 mi
9:55 am71 °FSunny.10 mph72%29.88 "Hg10 mi
9:15 am67 °FSunny.9 mph92%29.88 "Hg10 mi
8:55 am64 °FSunny.6 mph96%29.88 "Hg10 mi
8:15 am60 °FSunny.5 mph96%29.88 "Hg10 mi
7:55 am59 °FSunny.3 mph96%29.87 "Hg10 mi
7:15 am58 °FClear.6 mph96%29.85 "Hg10 mi
6:55 am57 °FClear.5 mph96%29.85 "Hg10 mi
6:10 am57 °FClear.5 mph96%29.83 "Hg10 mi
5:55 am57 °FClear.3 mph96%29.83 "Hg10 mi
5:35 am57 °FClear.3 mph96%29.83 "Hg10 mi
5:15 am58 °FClear.No wind95%29.83 "Hg10 mi
4:55 am58 °FPassing clouds.No wind96%29.83 "Hg10 mi
4:15 am58 °FClear.No wind95%29.83 "Hg10 mi
3:55 am59 °FClear.No wind96%29.83 "Hg10 mi
3:15 am60 °FPassing clouds.No wind96%29.83 "Hg10 mi
2:55 am61 °FPassing clouds.No wind95%29.83 "Hg10 mi
2:15 am63 °FOvercast.No wind96%29.83 "Hg10 mi
1:55 am63 °FOvercast.No wind96%29.83 "Hg10 mi
1:15 am65 °FOvercast.No wind88%29.82 "Hg10 mi
12:55 am65 °FOvercast.No wind85%29.83 "Hg10 mi
12:15 am66 °FMostly cloudy.6 mph81%29.82 "Hg10 mi
11:55 pm
Fri, Sep 30
66 °FOvercast.5 mph80%29.83 "Hg10 mi
11:35 pm66 °FOvercast.3 mph79%29.83 "Hg10 mi
11:15 pm66 °FOvercast.7 mph83%29.83 "Hg10 mi
10:35 pm63 °FPassing clouds.No wind96%29.82 "Hg10 mi
10:15 pm64 °FPassing clouds.No wind94%29.82 "Hg10 mi
9:35 pm65 °FClear.No wind89%29.82 "Hg10 mi
8:55 pm66 °FClear.6 mph82%29.81 "Hg10 mi
7:35 pm69 °FOvercast.No wind68%29.80 "Hg10 mi
6:55 pm70 °FOvercast.6 mph64%29.80 "Hg10 mi
6:15 pm71 °FOvercast.6 mph61%29.80 "Hg10 mi
5:55 pm72 °FOvercast.6 mph61%29.79 "Hg10 mi
5:15 pm72 °FOvercast.10 mph59%29.79 "Hg10 mi
Weather by CustomWeather, © 2022

See weather overview